Time;durP1;ratioP1;P1;durP2;ratioP2;P2;SDS_P1;SDS_P2;PMS_P1;PMS_P2;Temp;Humidity;BMP_temperature;BMP_pressure;BME280_temperature;BME280_humidity;BME280_pressure;Samples;Min_cycle;Max_cycle;Signal;HPM_P1;HPM_P2
2021/12/23 00:10:46;;;;;;;69.43;27.00;;;;;;;-1.48;100.00;101114.41;714246;1202;115584;-74
2021/12/23 00:25:50;;;;;;;72.53;27.27;;;;;;;-1.51;100.00;101092.17;714256;1199;115093;-72
2021/12/23 00:40:54;;;;;;;52.77;21.00;;;;;;;-1.54;100.00;101077.64;714225;1199;115161;-73
2021/12/23 00:55:56;;;;;;;62.45;24.43;;;;;;;-1.52;100.00;101065.59;714337;1190;114502;-72
2021/12/23 01:11:00;;;;;;;72.67;24.97;;;;;;;-1.46;100.00;101054.30;714228;1200;114450;-73
2021/12/23 01:26:03;;;;;;;60.30;22.48;;;;;;;-1.46;100.00;101022.58;714136;1177;115197;-72
2021/12/23 01:41:06;;;;;;;60.58;22.45;;;;;;;-1.45;100.00;101004.51;714422;1175;115214;-74
2021/12/23 01:56:08;;;;;;;61.08;23.55;;;;;;;-1.45;100.00;100988.20;714366;1178;114485;-73
2021/12/23 02:11:11;;;;;;;70.00;25.55;;;;;;;-1.56;100.00;100967.91;714412;1203;115234;-73
2021/12/23 02:26:14;;;;;;;76.00;27.70;;;;;;;-1.62;100.00;100945.77;714347;1199;115394;-73
2021/12/23 02:41:16;;;;;;;84.23;27.73;;;;;;;-1.73;100.00;100924.61;714404;1199;116007;-74
2021/12/23 02:56:30;;;;;;;85.80;30.40;;;;;;;-1.84;100.00;100915.44;714314;1199;115193;-73
2021/12/23 03:11:32;;;;;;;76.67;27.90;;;;;;;-1.90;99.96;100894.19;714473;1205;114275;-72
2021/12/23 03:26:35;;;;;;;68.88;27.68;;;;;;;-2.00;100.00;100878.16;714286;1202;116168;-72
2021/12/23 03:41:37;;;;;;;81.05;30.00;;;;;;;-2.15;100.00;100863.13;735447;1199;115787;-71
2021/12/23 03:56:39;;;;;;;76.23;29.18;;;;;;;-2.40;100.00;100843.19;714743;1177;114736;-72
2021/12/23 04:11:41;;;;;;;68.23;27.63;;;;;;;-2.54;99.77;100812.72;714432;1199;115550;-72
2021/12/23 04:26:44;;;;;;;63.75;26.35;;;;;;;-2.69;100.00;100789.09;714452;1174;114370;-73
2021/12/23 04:41:46;;;;;;;81.07;30.87;;;;;;;-2.83;99.19;100786.02;714376;1199;115245;-73
2021/12/23 04:56:48;;;;;;;71.05;27.30;;;;;;;-3.00;99.58;100768.45;714205;1203;115018;-73
2021/12/23 05:11:51;;;;;;;78.37;28.57;;;;;;;-3.02;99.38;100758.22;714496;1199;115135;-73
2021/12/23 05:26:53;;;;;;;77.27;30.33;;;;;;;-3.05;99.38;100731.77;714314;1199;115862;-72
2021/12/23 05:41:56;;;;;;;79.85;29.40;;;;;;;-3.11;100.00;100713.98;714762;1188;114679;-72
2021/12/23 05:57:01;;;;;;;68.03;27.23;;;;;;;-3.13;99.97;100698.59;714108;1202;114767;-72
2021/12/23 06:12:04;;;;;;;64.27;26.20;;;;;;;-3.18;99.19;100692.72;714153;1203;115877;-73
2021/12/23 06:27:06;;;;;;;85.70;34.70;;;;;;;-3.21;98.69;100662.88;714061;1200;115501;-74
2021/12/23 06:42:09;;;;;;;101.23;36.73;;;;;;;-3.31;98.01;100648.58;714318;1200;114531;-73
2021/12/23 06:57:11;;;;;;;72.40;25.90;;;;;;;-3.49;98.64;100638.77;714534;1200;115254;-74
2021/12/23 07:12:13;;;;;;;65.77;25.83;;;;;;;-3.63;98.68;100626.25;714145;1199;114765;-74
2021/12/23 07:27:16;;;;;;;104.73;43.60;;;;;;;-3.65;98.09;100618.59;714339;1202;115960;-74
2021/12/23 07:42:19;;;;;;;96.38;40.08;;;;;;;-3.55;97.83;100599.55;714549;1180;115577;-73
2021/12/23 07:57:22;;;;;;;83.13;32.27;;;;;;;-3.47;98.21;100580.55;714968;1200;114825;-71
2021/12/23 08:12:24;;;;;;;78.68;31.20;;;;;;;-3.39;98.00;100568.36;715219;1199;115909;-72
2021/12/23 08:27:28;;;;;;;74.70;28.03;;;;;;;-3.33;97.60;100555.38;714762;1200;114461;-72
2021/12/23 08:42:30;;;;;;;55.50;24.70;;;;;;;-3.08;96.80;100534.20;714892;1196;114522;-71
2021/12/23 08:57:33;;;;;;;81.23;38.20;;;;;;;-2.83;96.46;100518.11;714942;1200;115954;-71
2021/12/23 09:12:35;;;;;;;110.60;37.43;;;;;;;-2.69;96.29;100493.70;714992;1199;114550;-72
2021/12/23 09:42:55;;;;;;;77.23;30.63;;;;;;;-1.95;94.87;100445.98;719972;1180;115056;-71
2021/12/23 09:57:59;;;;;;;82.63;30.43;;;;;;;-1.86;93.94;100415.67;715247;1176;114267;-72
2021/12/23 10:43:59;;;;;;;155.15;47.08;;;;;;;-1.41;93.03;100316.30;714665;1200;114703;-72
2021/12/23 10:59:09;;;;;;;140.00;48.93;;;;;;;-1.12;90.44;100275.73;714752;1202;115312;-72
2021/12/23 11:44:41;;;;;;;76.10;36.88;;;;;;;-0.63;88.55;100180.13;714664;1202;114626;-72
2021/12/23 12:00:01;;;;;;;75.73;32.08;;;;;;;-0.78;88.18;100152.44;717274;1200;114533;-73
2021/12/23 12:15:05;;;;;;;74.93;29.47;;;;;;;-0.93;89.69;100120.45;714757;1200;115183;-73
2021/12/23 12:30:10;;;;;;;162.30;52.35;;;;;;;-0.73;88.43;100083.52;714929;1203;114733;-73
2021/12/23 12:45:25;;;;;;;66.13;25.70;;;;;;;-0.57;88.65;100061.33;714790;1200;115404;-73
2021/12/23 13:00:34;;;;;;;74.90;32.63;;;;;;;-0.53;87.74;100042.23;714803;1199;114891;-74
2021/12/23 13:15:39;;;;;;;77.43;31.80;;;;;;;-0.64;86.77;100010.96;714861;1200;115360;-74
2021/12/23 13:30:42;;;;;;;119.35;44.13;;;;;;;-0.26;83.72;99987.72;715038;1205;116003;-75
2021/12/23 13:45:45;;;;;;;69.60;28.40;;;;;;;-0.25;82.62;99967.91;714412;1200;114395;-74
2021/12/23 14:00:50;;;;;;;79.37;35.17;;;;;;;-0.49;81.67;99939.00;714661;1200;114248;-74
2021/12/23 14:15:53;;;;;;;86.73;31.60;;;;;;;-0.66;81.80;99927.77;715408;1203;115040;-74
2021/12/23 14:31:02;;;;;;;102.63;40.38;;;;;;;-0.64;80.66;99902.74;714820;1202;114105;-73
2021/12/23 14:46:05;;;;;;;234.90;65.27;;;;;;;-0.76;80.59;99865.52;715457;1178;115253;-73
2021/12/23 15:01:18;;;;;;;103.60;39.85;;;;;;;-0.82;80.61;99845.19;715835;1176;114458;-74
2021/12/23 15:16:26;;;;;;;116.95;44.40;;;;;;;-0.79;81.41;99808.15;714484;1200;114469;-73
2021/12/23 15:31:29;;;;;;;106.17;38.43;;;;;;;-0.80;80.69;99776.42;714773;1177;114219;-73
2021/12/23 15:46:31;;;;;;;135.95;45.83;;;;;;;-0.91;81.38;99752.91;715844;1178;114221;-74
2021/12/23 16:01:34;;;;;;;93.90;37.35;;;;;;;-1.69;84.57;99729.98;715150;1178;115554;-73
2021/12/23 16:16:37;;;;;;;104.28;39.48;;;;;;;-1.67;86.34;99707.61;714708;1200;115793;-72
2021/12/23 16:31:39;;;;;;;401.58;130.18;;;;;;;-1.54;86.87;99674.43;715038;1199;115639;-73
2021/12/23 16:46:42;;;;;;;95.98;37.40;;;;;;;-1.53;88.25;99663.21;714551;1199;114945;-71
2021/12/23 17:01:46;;;;;;;95.07;35.47;;;;;;;-1.49;88.52;99627.88;714816;1177;115348;-73
2021/12/23 17:16:50;;;;;;;139.60;51.68;;;;;;;-1.52;89.20;99587.70;714831;1200;114046;-73
2021/12/23 17:31:53;;;;;;;98.20;37.40;;;;;;;-1.53;90.39;99553.44;714941;1199;114309;-73
2021/12/23 17:46:56;;;;;;;83.07;34.97;;;;;;;-1.49;90.55;99530.97;715242;1200;114203;-75
2021/12/23 18:02:03;;;;;;;91.13;34.00;;;;;;;-1.38;91.00;99494.39;714743;1174;115739;-73
2021/12/23 18:17:05;;;;;;;76.47;29.87;;;;;;;-1.32;91.52;99450.34;714661;1184;114296;-76
2021/12/23 18:32:08;;;;;;;71.58;30.90;;;;;;;-1.36;91.66;99420.50;715314;1200;114608;-75
2021/12/23 18:47:11;;;;;;;71.93;27.70;;;;;;;-1.32;92.24;99380.86;714927;1177;114152;-73
2021/12/23 19:02:47;;;;;;;83.08;34.30;;;;;;;-1.24;92.92;99362.41;717481;1200;114702;-74
2021/12/23 19:17:40;;;;;;;64.95;27.98;;;;;;;-1.24;93.05;99332.37;716052;1200;114079;-73
2021/12/23 19:32:44;;;;;;;80.75;34.10;;;;;;;-1.21;94.80;99306.45;714845;1190;114666;-73
2021/12/23 19:47:47;;;;;;;87.10;33.75;;;;;;;-1.17;95.03;99286.53;715158;1176;114309;-73
2021/12/23 20:02:50;;;;;;;74.70;30.55;;;;;;;-1.20;95.98;99259.21;714636;1177;114120;-73
2021/12/23 20:17:52;;;;;;;67.77;27.70;;;;;;;-1.05;97.26;99241.25;714651;1181;114271;-73
2021/12/23 20:32:55;;;;;;;68.37;27.07;;;;;;;-1.03;96.93;99205.93;715220;1199;115445;-70
2021/12/23 20:47:57;;;;;;;71.98;28.43;;;;;;;-0.95;97.85;99152.27;714892;1177;115067;-70
2021/12/23 21:02:59;;;;;;;84.87;33.73;;;;;;;-0.89;98.29;99112.45;714710;1202;114991;-70
2021/12/23 21:18:03;;;;;;;66.68;29.30;;;;;;;-0.91;99.79;99075.65;714935;1202;114922;-70
2021/12/23 21:33:07;;;;;;;72.37;30.90;;;;;;;-0.89;99.75;99058.38;714868;1199;114666;-71
2021/12/23 21:48:09;;;;;;;70.83;30.28;;;;;;;-0.76;100.00;99010.34;716633;1177;114114;-70
2021/12/23 22:03:13;;;;;;;70.30;28.60;;;;;;;-0.80;100.00;98975.41;715116;1200;116498;-70
2021/12/23 22:18:15;;;;;;;71.83;28.40;;;;;;;-0.72;100.00;98952.57;715085;1199;115955;-70
2021/12/23 22:33:18;;;;;;;62.40;26.40;;;;;;;-0.21;98.52;98930.47;715766;1183;114222;-71
2021/12/23 22:48:21;;;;;;;104.88;34.80;;;;;;;0.11;95.56;98896.60;714987;1199;114924;-71
2021/12/23 23:03:30;;;;;;;71.23;29.97;;;;;;;0.02;95.07;98859.35;715014;1190;113942;-71
2021/12/23 23:18:34;;;;;;;69.55;28.85;;;;;;;-0.05;96.58;98809.14;715237;1174;113941;-70
2021/12/23 23:48:58;;;;;;;66.90;28.18;;;;;;;0.31;93.69;98764.50;715010;1176;113831;-72
